createdAt,value
2018-03-31T00:01:24.517Z,20.83
2018-03-31T00:03:52.405Z,22.07
2018-03-31T00:06:20.285Z,22.23
2018-03-31T00:08:48.340Z,20.10
2018-03-31T00:11:17.059Z,20.17
2018-03-31T00:13:44.925Z,21.33
2018-03-31T00:16:12.761Z,19.73
2018-03-31T00:18:40.629Z,19.17
2018-03-31T00:21:08.489Z,18.87
2018-03-31T00:23:36.373Z,21.87
2018-03-31T00:26:04.227Z,21.53
2018-03-31T00:28:32.124Z,18.50
2018-03-31T00:31:00.090Z,21.90
2018-03-31T00:33:27.923Z,19.83
2018-03-31T00:35:55.838Z,16.57
2018-03-31T00:38:23.676Z,18.13
2018-03-31T00:40:51.756Z,20.33
2018-03-31T00:43:19.633Z,19.27
2018-03-31T00:45:47.498Z,17.90
2018-03-31T00:48:15.361Z,17.97
2018-03-31T00:50:43.200Z,18.67
2018-03-31T00:53:11.040Z,20.23
2018-03-31T00:55:39.718Z,19.90
2018-03-31T00:58:07.551Z,18.20
2018-03-31T01:00:35.428Z,19.40
2018-03-31T01:03:03.285Z,18.83
2018-03-31T01:05:31.189Z,18.93
2018-03-31T01:07:59.090Z,18.57
2018-03-31T01:10:27.720Z,19.50
2018-03-31T01:12:55.570Z,18.10
2018-03-31T01:15:23.436Z,20.53
2018-03-31T01:17:51.302Z,20.10
2018-03-31T01:20:19.139Z,17.27
2018-03-31T01:22:47.000Z,20.43
2018-03-31T01:25:15.619Z,19.90
2018-03-31T01:27:43.481Z,18.63
2018-03-31T01:30:11.323Z,17.57
2018-03-31T01:32:40.040Z,17.23
2018-03-31T01:35:07.896Z,18.03
2018-03-31T01:37:35.749Z,20.47
2018-03-31T01:40:04.360Z,17.53
2018-03-31T01:42:32.196Z,22.07
2018-03-31T01:45:00.822Z,20.67
2018-03-31T01:47:28.669Z,19.17
2018-03-31T01:49:56.554Z,20.73
2018-03-31T01:52:24.403Z,16.83
2018-03-31T01:54:52.273Z,19.50
2018-03-31T01:57:20.253Z,18.77
2018-03-31T01:59:48.121Z,19.80
2018-03-31T02:02:16.027Z,19.53
2018-03-31T02:04:43.905Z,19.67
2018-03-31T02:07:12.528Z,20.27
2018-03-31T02:09:40.375Z,19.33
2018-03-31T02:12:08.232Z,19.67
2018-03-31T02:14:36.237Z,20.43
2018-03-31T02:17:04.076Z,18.63
2018-03-31T02:19:31.926Z,21.47
2018-03-31T02:21:59.807Z,21.37
2018-03-31T02:24:27.640Z,23.17
2018-03-31T02:26:55.633Z,20.97
2018-03-31T02:29:23.470Z,20.00
2018-03-31T02:31:51.332Z,21.37
2018-03-31T02:34:19.380Z,19.87
2018-03-31T02:36:47.209Z,20.97
2018-03-31T02:39:15.826Z,20.67
2018-03-31T02:41:43.669Z,20.13
2018-03-31T02:46:45.604Z,19.57
2018-03-31T02:49:13.613Z,21.17
2018-03-31T02:51:41.515Z,21.73
2018-03-31T02:54:09.355Z,21.80
2018-03-31T02:56:37.262Z,21.33
2018-03-31T02:59:05.112Z,21.03
2018-03-31T03:01:32.964Z,22.33
2018-03-31T03:04:01.569Z,22.70
2018-03-31T03:06:29.437Z,22.17
2018-03-31T03:08:57.272Z,24.00
2018-03-31T03:11:25.119Z,23.17
2018-03-31T03:13:52.959Z,21.33
2018-03-31T03:16:20.811Z,22.60
2018-03-31T03:18:48.740Z,26.00
2018-03-31T03:21:17.364Z,22.37
2018-03-31T03:23:45.335Z,23.10
2018-03-31T03:26:13.173Z,24.17
2018-03-31T03:28:41.035Z,29.37
2018-03-31T03:31:09.650Z,26.73
2018-03-31T03:33:37.512Z,24.37
2018-03-31T03:36:05.356Z,23.63
2018-03-31T03:38:33.987Z,25.63
2018-03-31T03:41:01.893Z,27.00
2018-03-31T03:43:29.748Z,24.93
2018-03-31T03:45:57.784Z,22.83
2018-03-31T03:48:25.631Z,30.73
2018-03-31T03:50:53.485Z,27.50
2018-03-31T03:53:22.104Z,28.30
2018-03-31T03:55:50.000Z,26.63
2018-03-31T03:58:17.866Z,28.27
2018-03-31T04:00:45.744Z,26.97
2018-03-31T04:03:13.668Z,29.10
2018-03-31T04:05:41.531Z,29.17
2018-03-31T04:08:09.376Z,28.73
2018-03-31T04:10:37.228Z,29.37
2018-03-31T04:13:05.829Z,28.83
2018-03-31T04:15:33.683Z,29.50
2018-03-31T04:18:02.313Z,31.13
2018-03-31T04:20:30.171Z,31.93
2018-03-31T04:22:58.255Z,29.30
2018-03-31T04:25:26.104Z,31.87
2018-03-31T04:27:53.955Z,31.80
2018-03-31T04:30:21.806Z,31.27
2018-03-31T04:32:49.708Z,31.40
2018-03-31T04:35:17.582Z,35.50
2018-03-31T04:37:46.060Z,32.90
2018-03-31T04:40:13.929Z,29.87
2018-03-31T04:42:41.943Z,32.70
2018-03-31T04:45:09.795Z,32.00
2018-03-31T04:47:37.661Z,34.57
2018-03-31T04:50:05.497Z,33.83
2018-03-31T04:52:33.379Z,32.10
2018-03-31T04:55:01.211Z,34.97
2018-03-31T04:57:29.110Z,35.60
2018-03-31T04:59:56.952Z,34.33
2018-03-31T05:02:24.799Z,30.87
2018-03-31T05:04:52.656Z,33.00
2018-03-31T05:07:20.581Z,34.23
2018-03-31T05:09:48.412Z,34.23
2018-03-31T05:12:17.053Z,34.60
2018-03-31T05:14:44.993Z,36.93
2018-03-31T05:17:12.842Z,32.83
2018-03-31T05:19:40.695Z,34.23
2018-03-31T05:22:09.322Z,34.53
2018-03-31T05:24:37.169Z,36.63
2018-03-31T05:27:05.035Z,32.03
2018-03-31T05:29:32.924Z,36.70
2018-03-31T05:32:00.857Z,33.80
2018-03-31T05:34:29.463Z,34.57
2018-03-31T05:36:57.312Z,33.83
2018-03-31T05:39:25.159Z,32.23
2018-03-31T05:41:53.851Z,35.10
2018-03-31T05:44:22.557Z,30.87
2018-03-31T05:46:51.268Z,30.77
2018-03-31T05:49:19.112Z,32.07
2018-03-31T05:51:47.084Z,32.53
2018-03-31T05:54:14.974Z,30.67
2018-03-31T05:56:42.816Z,33.03
2018-03-31T05:59:10.728Z,32.97
2018-03-31T06:01:38.596Z,30.27
2018-03-31T06:04:06.454Z,29.33
2018-03-31T06:06:34.303Z,26.73
2018-03-31T06:09:02.154Z,27.77
2018-03-31T06:11:30.004Z,28.23
2018-03-31T06:13:58.626Z,28.03
2018-03-31T06:16:26.501Z,28.07
2018-03-31T06:18:54.355Z,28.57
2018-03-31T06:21:22.337Z,30.53
2018-03-31T06:23:50.210Z,24.93
2018-03-31T06:26:18.068Z,28.67
2018-03-31T06:28:45.936Z,27.97
2018-03-31T06:31:13.900Z,29.67
2018-03-31T06:33:41.770Z,23.93
2018-03-31T06:36:09.615Z,27.63
2018-03-31T06:38:37.469Z,28.13
2018-03-31T06:41:05.315Z,27.90
2018-03-31T06:43:33.175Z,28.47
2018-03-31T06:46:01.027Z,29.00
2018-03-31T06:48:29.023Z,30.00
2018-03-31T06:50:56.940Z,29.70
2018-03-31T06:53:24.817Z,24.37
2018-03-31T06:55:52.664Z,28.03
2018-03-31T06:58:20.516Z,28.43
2018-03-31T07:00:48.380Z,26.63
2018-03-31T07:03:16.242Z,28.03
2018-03-31T07:05:44.136Z,28.20
2018-03-31T07:08:12.016Z,30.03
2018-03-31T07:10:39.879Z,29.97
2018-03-31T07:13:07.753Z,29.43
2018-03-31T07:15:35.649Z,26.37
2018-03-31T07:18:03.472Z,27.30
2018-03-31T07:20:31.317Z,25.20
2018-03-31T07:23:00.028Z,26.67
2018-03-31T07:25:27.889Z,28.50
2018-03-31T07:27:55.736Z,24.40
2018-03-31T07:30:24.405Z,23.87
2018-03-31T07:32:52.313Z,25.70
2018-03-31T07:35:20.983Z,24.50
2018-03-31T07:37:48.888Z,24.63
2018-03-31T07:40:16.789Z,28.17
2018-03-31T07:42:44.668Z,25.73
2018-03-31T07:45:12.494Z,25.43
2018-03-31T07:47:40.343Z,27.83
2018-03-31T07:50:08.200Z,26.73
2018-03-31T07:52:36.053Z,27.93
2018-03-31T07:55:04.678Z,26.67
2018-03-31T07:57:32.540Z,25.57
2018-03-31T08:00:00.406Z,24.43
2018-03-31T08:02:28.364Z,24.10
2018-03-31T08:04:56.279Z,23.80
2018-03-31T08:07:24.299Z,26.30
2018-03-31T08:09:52.167Z,24.90
2018-03-31T08:12:20.021Z,26.90
2018-03-31T08:14:48.180Z,24.20
2018-03-31T08:17:16.872Z,27.60
2018-03-31T08:19:45.514Z,26.23
2018-03-31T08:22:13.372Z,25.77
2018-03-31T08:24:41.243Z,24.50
2018-03-31T08:27:09.091Z,27.10
2018-03-31T08:29:36.934Z,28.40
2018-03-31T08:32:05.546Z,24.63
2018-03-31T08:34:33.398Z,26.17
2018-03-31T08:37:01.260Z,20.13
2018-03-31T08:39:29.847Z,22.40
2018-03-31T08:41:57.700Z,21.90
2018-03-31T08:44:25.774Z,21.83
2018-03-31T08:46:54.413Z,23.87
2018-03-31T08:49:22.246Z,20.10
2018-03-31T08:51:50.118Z,20.43
2018-03-31T08:54:17.984Z,22.73
2018-03-31T08:56:45.835Z,22.63
2018-03-31T08:59:13.703Z,21.53
2018-03-31T09:01:41.556Z,26.07
2018-03-31T09:04:09.451Z,24.10
2018-03-31T09:06:37.331Z,25.83
2018-03-31T09:09:05.185Z,22.57
2018-03-31T09:11:33.022Z,25.37
2018-03-31T09:14:01.626Z,24.27
2018-03-31T09:16:29.473Z,22.80
2018-03-31T09:18:57.338Z,21.87
2018-03-31T09:21:25.967Z,24.03
2018-03-31T09:23:53.818Z,23.30
2018-03-31T09:26:21.672Z,21.97
2018-03-31T09:28:49.554Z,25.77
2018-03-31T09:31:17.416Z,22.20
2018-03-31T09:33:46.077Z,23.33
2018-03-31T09:36:14.764Z,23.30
2018-03-31T09:38:42.679Z,21.63
2018-03-31T09:41:10.508Z,22.27
2018-03-31T09:43:39.142Z,22.60
2018-03-31T09:46:06.998Z,21.03
2018-03-31T09:48:34.828Z,22.87
2018-03-31T09:51:02.722Z,23.60
2018-03-31T09:53:30.561Z,31.00
2018-03-31T09:55:59.325Z,22.10
2018-03-31T09:58:27.151Z,20.10
2018-03-31T10:01:00.831Z,21.60
2018-03-31T10:03:28.683Z,22.63
2018-03-31T10:05:56.577Z,20.37
2018-03-31T10:08:24.389Z,22.23
2018-03-31T10:10:53.029Z,21.57
2018-03-31T10:13:20.884Z,21.20
2018-03-31T10:15:48.769Z,18.97
2018-03-31T10:18:16.594Z,19.90
2018-03-31T10:20:45.213Z,20.97
2018-03-31T10:23:13.080Z,20.43
2018-03-31T10:25:41.000Z,19.93
2018-03-31T10:28:08.836Z,18.63
2018-03-31T10:30:36.735Z,19.63
2018-03-31T10:33:04.572Z,19.57
2018-03-31T10:35:32.545Z,24.17
2018-03-31T10:38:00.449Z,18.60
2018-03-31T10:40:28.464Z,20.17
2018-03-31T10:42:56.306Z,22.13
2018-03-31T10:45:24.161Z,23.70
2018-03-31T10:47:52.780Z,20.83
2018-03-31T10:50:20.632Z,19.33
2018-03-31T10:52:48.608Z,21.53
2018-03-31T10:55:16.477Z,21.83
2018-03-31T10:57:44.364Z,20.20
2018-03-31T11:00:12.233Z,20.47
2018-03-31T11:02:40.077Z,19.80
2018-03-31T11:05:07.955Z,20.13
2018-03-31T11:07:35.908Z,20.43
2018-03-31T11:10:03.793Z,22.17
2018-03-31T11:12:31.642Z,17.03
2018-03-31T11:14:59.536Z,17.90
2018-03-31T11:17:27.713Z,17.93
2018-03-31T11:19:55.559Z,16.47
2018-03-31T11:22:23.402Z,18.17
2018-03-31T11:24:52.034Z,17.53
2018-03-31T11:27:19.999Z,17.97
2018-03-31T11:29:47.843Z,18.67
2018-03-31T11:32:15.752Z,18.77
2018-03-31T11:34:43.571Z,16.70
2018-03-31T11:37:11.459Z,16.90
2018-03-31T11:39:39.310Z,16.37
2018-03-31T11:42:07.185Z,19.93
2018-03-31T11:44:35.024Z,16.37
2018-03-31T11:47:03.764Z,17.20
2018-03-31T11:49:31.662Z,15.40
2018-03-31T11:51:59.506Z,14.60
2018-03-31T11:54:27.428Z,15.93
2018-03-31T11:56:55.264Z,15.93
2018-03-31T11:59:23.124Z,15.13
2018-03-31T12:01:51.012Z,17.53
2018-03-31T12:04:18.905Z,16.43
2018-03-31T12:06:46.759Z,14.80
2018-03-31T12:09:15.479Z,15.53
2018-03-31T12:11:44.364Z,16.47
2018-03-31T12:14:12.319Z,16.27
2018-03-31T12:16:41.025Z,13.60
2018-03-31T12:19:08.893Z,13.77
2018-03-31T12:21:36.855Z,12.90
2018-03-31T12:24:04.705Z,14.30
2018-03-31T12:26:32.601Z,14.83
2018-03-31T12:29:00.449Z,13.63
2018-03-31T12:31:28.329Z,12.70
2018-03-31T12:33:56.317Z,14.57
2018-03-31T12:36:24.163Z,16.37
2018-03-31T12:38:52.025Z,17.50
2018-03-31T12:41:19.860Z,13.07
2018-03-31T12:43:48.477Z,13.60
2018-03-31T12:46:16.396Z,12.30
2018-03-31T12:48:44.354Z,12.03
2018-03-31T12:51:12.191Z,11.30
2018-03-31T12:53:40.119Z,11.37
2018-03-31T12:56:08.035Z,10.77
2018-03-31T12:58:35.821Z,11.03
2018-03-31T13:01:03.674Z,13.00
2018-03-31T13:03:31.509Z,12.10
2018-03-31T13:05:59.362Z,12.50
2018-03-31T13:08:27.972Z,13.03
2018-03-31T13:10:55.841Z,12.13
2018-03-31T13:13:23.668Z,15.70
2018-03-31T13:15:51.553Z,11.47
2018-03-31T13:18:20.152Z,11.33
2018-03-31T13:20:48.069Z,11.53
2018-03-31T13:23:15.949Z,11.17
2018-03-31T13:25:43.817Z,11.53
2018-03-31T13:28:11.943Z,13.87
2018-03-31T13:30:39.820Z,12.07
2018-03-31T13:33:07.669Z,11.17
2018-03-31T13:35:35.509Z,11.37
2018-03-31T13:38:04.130Z,10.53
2018-03-31T13:40:32.159Z,11.20
2018-03-31T13:43:00.146Z,10.00
2018-03-31T13:45:28.860Z,10.80
2018-03-31T13:47:56.709Z,12.43
2018-03-31T13:50:24.572Z,11.33
2018-03-31T13:52:52.412Z,11.97
2018-03-31T13:55:21.043Z,10.23
2018-03-31T13:57:48.871Z,12.47
2018-03-31T14:00:16.729Z,10.67
2018-03-31T14:02:44.658Z,16.67
2018-03-31T14:05:12.502Z,14.37
2018-03-31T14:07:40.374Z,10.97
2018-03-31T14:10:08.213Z,9.67
2018-03-31T14:12:36.152Z,10.13
2018-03-31T14:15:04.095Z,12.40
2018-03-31T14:17:31.964Z,10.80
2018-03-31T14:19:59.795Z,10.30
2018-03-31T14:22:27.642Z,10.63
2018-03-31T14:24:55.488Z,10.40
2018-03-31T14:27:23.346Z,11.23
2018-03-31T14:29:51.273Z,10.27
2018-03-31T14:32:19.205Z,9.87
2018-03-31T14:34:47.041Z,11.13
2018-03-31T14:37:14.982Z,9.53
2018-03-31T14:39:42.818Z,10.37
2018-03-31T14:42:10.656Z,9.13
2018-03-31T14:44:38.513Z,10.23
2018-03-31T14:47:06.358Z,11.20
2018-03-31T14:49:34.225Z,11.60
2018-03-31T14:52:02.098Z,11.47
2018-03-31T14:54:29.964Z,10.87
2018-03-31T14:56:57.795Z,12.07
2018-03-31T14:59:26.428Z,10.67
2018-03-31T15:01:54.278Z,10.97
2018-03-31T15:04:22.108Z,11.53
2018-03-31T15:06:50.725Z,11.33
2018-03-31T15:09:18.570Z,12.23
2018-03-31T15:11:47.181Z,10.60
2018-03-31T15:14:15.029Z,13.63
2018-03-31T15:16:42.925Z,11.43
2018-03-31T15:19:10.800Z,11.80
2018-03-31T15:21:38.643Z,12.57
2018-03-31T15:24:06.490Z,10.23
2018-03-31T15:26:35.230Z,12.30
2018-03-31T15:29:03.064Z,10.40
2018-03-31T15:31:30.901Z,10.03
2018-03-31T15:33:58.805Z,12.97
2018-03-31T15:36:26.711Z,10.17
2018-03-31T15:38:54.661Z,15.97
2018-03-31T15:41:22.526Z,11.23
2018-03-31T15:43:50.394Z,9.67
2018-03-31T15:46:18.202Z,9.53
2018-03-31T15:48:46.824Z,9.47
2018-03-31T15:51:14.670Z,10.67
2018-03-31T15:53:42.540Z,8.37
2018-03-31T15:56:11.137Z,8.70
2018-03-31T15:58:38.980Z,8.37
2018-03-31T16:01:06.819Z,9.23
2018-03-31T16:03:34.760Z,9.67
2018-03-31T16:06:02.616Z,8.60
2018-03-31T16:08:30.494Z,9.67
2018-03-31T16:10:58.355Z,11.93
2018-03-31T16:13:26.197Z,9.33
2018-03-31T16:15:54.088Z,11.63
2018-03-31T16:18:21.921Z,13.37
2018-03-31T16:20:50.657Z,12.33
2018-03-31T16:23:18.489Z,11.20
2018-03-31T16:25:46.325Z,11.57
2018-03-31T16:28:14.185Z,13.70
2018-03-31T16:30:42.041Z,13.97
2018-03-31T16:33:09.924Z,13.47
2018-03-31T16:35:37.774Z,10.67
2018-03-31T16:38:05.625Z,10.20
2018-03-31T16:40:33.507Z,10.33
2018-03-31T16:43:01.336Z,10.00
2018-03-31T16:45:29.200Z,10.23
2018-03-31T16:47:57.108Z,11.23
2018-03-31T16:50:24.961Z,11.73
2018-03-31T16:52:53.129Z,10.73
2018-03-31T16:55:20.965Z,13.23
2018-03-31T16:57:49.585Z,12.60
2018-03-31T17:00:17.443Z,12.23
2018-03-31T17:02:45.283Z,13.60
2018-03-31T17:05:13.232Z,13.33
2018-03-31T17:07:41.078Z,13.70
2018-03-31T17:10:08.939Z,14.90
2018-03-31T17:12:36.844Z,17.00
2018-03-31T17:15:04.692Z,13.83
2018-03-31T17:17:32.545Z,17.00
2018-03-31T17:20:00.467Z,16.00
2018-03-31T17:22:28.317Z,12.37
2018-03-31T17:24:56.944Z,12.80
2018-03-31T17:27:24.810Z,13.07
2018-03-31T17:29:52.690Z,13.70
2018-03-31T17:32:20.585Z,10.73
2018-03-31T17:34:48.413Z,11.53
2018-03-31T17:37:16.378Z,16.87
2018-03-31T17:39:44.227Z,16.00
2018-03-31T17:42:12.148Z,14.97
2018-03-31T17:44:39.974Z,12.20
2018-03-31T17:47:07.840Z,12.47
2018-03-31T17:49:35.697Z,12.83
2018-03-31T17:52:03.541Z,13.27
2018-03-31T17:54:32.267Z,12.93
2018-03-31T17:57:00.122Z,11.90
2018-03-31T17:59:27.986Z,12.90
2018-03-31T18:01:55.844Z,12.20
2018-03-31T18:04:23.700Z,12.93
2018-03-31T18:06:52.325Z,12.30
2018-03-31T18:09:20.164Z,16.03
2018-03-31T18:11:48.020Z,15.43
2018-03-31T18:14:16.742Z,13.87
2018-03-31T18:16:44.608Z,13.33
2018-03-31T18:19:12.458Z,17.90
2018-03-31T18:21:40.397Z,12.10
2018-03-31T18:24:08.203Z,12.97
2018-03-31T18:26:36.048Z,12.73
2018-03-31T18:29:04.662Z,15.23
2018-03-31T18:31:32.504Z,16.90
2018-03-31T18:34:00.369Z,17.33
2018-03-31T18:36:29.023Z,18.30
2018-03-31T18:38:56.980Z,17.73
2018-03-31T18:41:24.817Z,20.30
2018-03-31T18:43:52.676Z,24.13
2018-03-31T18:46:20.520Z,22.93
2018-03-31T18:48:49.148Z,19.57
2018-03-31T18:51:17.089Z,18.67
2018-03-31T18:53:44.950Z,17.57
2018-03-31T18:56:12.828Z,20.97
2018-03-31T18:58:40.716Z,18.07
2018-03-31T19:01:08.575Z,15.37
2018-03-31T19:03:36.440Z,14.13
2018-03-31T19:06:04.314Z,14.20
2018-03-31T19:08:32.168Z,16.07
2018-03-31T19:11:00.066Z,15.00
2018-03-31T19:13:28.731Z,15.10
2018-03-31T19:15:56.590Z,20.77
2018-03-31T19:18:24.677Z,16.70
2018-03-31T19:20:52.629Z,16.73
2018-03-31T19:23:20.466Z,18.03
2018-03-31T19:25:49.794Z,18.90
2018-03-31T19:28:17.651Z,28.93
2018-03-31T19:30:50.361Z,28.80
2018-03-31T19:33:18.206Z,33.93
2018-03-31T19:35:51.668Z,32.00
2018-03-31T19:38:19.678Z,31.27
2018-03-31T19:40:48.389Z,34.50
2018-03-31T19:43:16.218Z,31.73
2018-03-31T19:45:44.816Z,30.43
2018-03-31T19:48:12.696Z,33.80
2018-03-31T19:50:40.540Z,32.80
2018-03-31T19:53:09.146Z,34.60
2018-03-31T19:55:37.027Z,36.10
2018-03-31T19:58:04.892Z,30.70
2018-03-31T20:00:32.863Z,31.00
2018-03-31T20:03:01.140Z,32.80
2018-03-31T20:05:29.006Z,37.27
2018-03-31T20:07:56.840Z,39.77
2018-03-31T20:10:24.883Z,39.90
2018-03-31T20:12:52.748Z,39.57
2018-03-31T20:15:20.612Z,39.67
2018-03-31T20:17:48.460Z,36.37
2018-03-31T20:20:16.406Z,36.93
2018-03-31T20:22:44.278Z,30.97
2018-03-31T20:25:12.129Z,27.50
2018-03-31T20:27:39.978Z,30.23
2018-03-31T20:30:07.872Z,23.93
2018-03-31T20:32:35.728Z,20.87
2018-03-31T20:35:03.583Z,21.07
2018-03-31T20:37:32.241Z,23.23
2018-03-31T20:40:00.101Z,26.70
2018-03-31T20:42:27.981Z,27.47
2018-03-31T20:44:55.816Z,26.33
2018-03-31T20:47:23.661Z,26.23
2018-03-31T20:49:52.146Z,25.73
2018-03-31T20:52:19.988Z,27.80
2018-03-31T20:54:47.876Z,29.17
2018-03-31T20:57:15.746Z,26.47
2018-03-31T20:59:43.609Z,27.47
2018-03-31T21:02:11.446Z,28.20
2018-03-31T21:04:40.087Z,31.73
2018-03-31T21:07:07.928Z,27.17
2018-03-31T21:09:35.760Z,25.70
2018-03-31T21:12:04.401Z,26.17
2018-03-31T21:14:32.361Z,27.77
2018-03-31T21:17:00.233Z,27.30
2018-03-31T21:19:28.093Z,25.83
2018-03-31T21:21:56.020Z,27.33
2018-03-31T21:24:24.661Z,29.97
2018-03-31T21:26:52.495Z,27.57
2018-03-31T21:29:20.368Z,26.13
2018-03-31T21:31:48.234Z,29.80
2018-03-31T21:34:16.091Z,25.03
2018-03-31T21:36:43.981Z,25.13
2018-03-31T21:39:12.056Z,25.57
2018-03-31T21:41:39.877Z,29.27
2018-03-31T21:44:08.604Z,28.33
2018-03-31T21:46:36.443Z,28.43
2018-03-31T21:49:05.160Z,25.13
2018-03-31T21:51:33.032Z,26.20
2018-03-31T21:54:00.918Z,22.47
2018-03-31T21:56:28.763Z,23.40
2018-03-31T21:58:57.124Z,25.53
2018-03-31T22:01:25.012Z,23.27
2018-03-31T22:03:52.871Z,26.30
2018-03-31T22:06:20.772Z,25.20
2018-03-31T22:08:48.651Z,25.60
2018-03-31T22:11:16.574Z,26.27
2018-03-31T22:13:50.021Z,26.67
2018-03-31T22:16:17.889Z,26.40
2018-03-31T22:18:45.756Z,23.87
2018-03-31T22:21:13.658Z,25.57
2018-03-31T22:23:41.524Z,23.73
2018-03-31T22:26:09.360Z,25.97
2018-03-31T22:28:37.233Z,26.63
2018-03-31T22:31:05.069Z,25.87
2018-03-31T22:33:32.985Z,29.43
2018-03-31T22:36:00.818Z,28.77
2018-03-31T22:38:28.757Z,29.37
2018-03-31T22:40:56.693Z,30.57
2018-03-31T22:43:25.311Z,29.77
2018-03-31T22:45:53.157Z,27.60
2018-03-31T22:48:21.002Z,29.83
2018-03-31T22:50:49.620Z,27.40
2018-03-31T22:53:17.485Z,26.87
2018-03-31T22:55:45.514Z,27.47
2018-03-31T22:58:13.483Z,28.70
2018-03-31T23:00:41.341Z,30.97
2018-03-31T23:03:09.196Z,29.03
2018-03-31T23:05:37.063Z,28.40
2018-03-31T23:08:04.941Z,29.27
2018-03-31T23:10:32.793Z,27.00
2018-03-31T23:13:00.671Z,30.37
2018-03-31T23:15:28.528Z,29.53
2018-03-31T23:17:56.377Z,28.10
2018-03-31T23:20:24.212Z,29.43
2018-03-31T23:22:52.100Z,32.03
2018-03-31T23:25:19.968Z,30.57
2018-03-31T23:27:47.865Z,31.37
2018-03-31T23:30:15.717Z,33.57
2018-03-31T23:32:43.619Z,35.93
2018-03-31T23:35:11.485Z,37.90
2018-03-31T23:37:39.316Z,38.37
2018-03-31T23:40:07.179Z,42.10
2018-03-31T23:42:35.037Z,41.73
2018-03-31T23:45:02.918Z,37.43
2018-03-31T23:47:30.816Z,42.63
2018-03-31T23:49:58.758Z,39.10
2018-03-31T23:52:26.620Z,41.47
2018-03-31T23:54:54.481Z,40.33
2018-03-31T23:57:22.362Z,37.73
2018-03-31T23:59:50.304Z,40.00
